createdAt,value
2023-02-21T00:03:19.988Z,24.234113712374583
2023-02-21T00:09:58.185Z,25.68561872909699
2023-02-21T00:17:49.107Z,25.240802675585286
2023-02-21T00:25:13.629Z,26.331103678929765
2023-02-21T00:33:57.845Z,26.82608695652174
2023-02-21T00:40:49.391Z,28.13377926421405
2023-02-21T00:47:35.898Z,26.414715719063544
2023-02-21T00:54:18.404Z,25.103678929765888
2023-02-21T01:01:02.574Z,25.51170568561873
2023-02-21T01:08:36.740Z,24.99665551839465
2023-02-21T01:17:30.267Z,23.68561872909699
2023-02-21T01:27:59.503Z,22.367892976588628
2023-02-21T01:37:24.000Z,22.615384615384617
2023-02-21T01:51:35.668Z,21.32441471571906
2023-02-21T01:58:32.657Z,21.451505016722408
2023-02-21T02:22:59.325Z,20.775919732441473
2023-02-21T02:30:55.860Z,21.17056856187291
2023-02-21T02:51:44.945Z,22.48494983277592
2023-02-21T03:21:40.007Z,20.31103678929766
2023-02-21T03:28:40.277Z,21.836120401337794
2023-02-21T03:35:20.810Z,22.923076923076923
2023-02-21T03:42:58.733Z,21.25752508361204
2023-02-21T03:49:40.710Z,21.270903010033443
2023-02-21T03:56:41.241Z,20.735785953177256
2023-02-21T04:19:37.306Z,19.899665551839465
2023-02-21T04:30:29.930Z,21.62541806020067
2023-02-21T04:37:36.977Z,22.05351170568562
2023-02-21T04:45:31.146Z,21.652173913043477
2023-02-21T04:53:01.585Z,19.91304347826087
2023-02-21T05:05:52.872Z,21.42809364548495
2023-02-21T05:15:24.290Z,22.19732441471572
2023-02-21T05:21:58.967Z,21.494983277591974
2023-02-21T05:33:47.270Z,22.23076923076923
2023-02-21T05:40:38.773Z,21.903010033444815
2023-02-21T05:59:52.086Z,19.899665551839465
2023-02-21T06:06:15.537Z,20.47826086956522
2023-02-21T06:12:36.525Z,20.906354515050168
2023-02-21T06:18:57.536Z,21.317725752508363
2023-02-21T06:25:18.610Z,24.264214046822744
2023-02-21T06:31:40.093Z,23.4247491638796
2023-02-21T06:44:07.445Z,20.254180602006688
2023-02-21T06:50:31.560Z,20.792642140468228
2023-02-21T07:08:38.180Z,26.39464882943144
2023-02-21T07:14:59.667Z,29.11705685618729
2023-02-21T07:21:24.277Z,24.99665551839465
2023-02-21T07:33:00.281Z,23.525083612040135
2023-02-21T07:39:43.353Z,22.53846153846154
2023-02-21T07:46:08.185Z,23.14715719063545
2023-02-21T07:59:06.201Z,21.702341137123746
2023-02-21T08:14:24.361Z,22.531772575250837
2023-02-21T08:30:35.474Z,22.59197324414716
2023-02-21T08:37:00.710Z,23.274247491638796
2023-02-21T08:48:34.647Z,23.91304347826087
2023-02-21T08:54:59.281Z,21.993311036789297
2023-02-21T09:01:24.165Z,23.638795986622075
2023-02-21T09:07:49.051Z,24.090301003344482
2023-02-21T09:14:13.636Z,24.036789297658864
2023-02-21T09:20:38.448Z,22.528428093645484
2023-02-21T09:27:05.783Z,24.819397993311036
2023-02-21T09:38:06.248Z,26.501672240802677
2023-02-21T09:44:30.383Z,25.377926421404684
2023-02-21T09:50:56.192Z,25.899665551839465
2023-02-21T10:00:47.988Z,25.287625418060202
2023-02-21T10:07:12.807Z,26.39464882943144
2023-02-21T10:14:51.389Z,26.695652173913043
2023-02-21T10:21:16.150Z,26.846153846153847
2023-02-21T10:27:40.851Z,26.100334448160535
2023-02-21T10:34:06.386Z,28.010033444816052
2023-02-21T10:42:03.022Z,27.224080267558527
2023-02-21T10:53:18.407Z,27.013377926421406
2023-02-21T10:59:43.654Z,25.505016722408026
2023-02-21T11:06:08.465Z,25.304347826086957
2023-02-21T11:15:35.525Z,24.953177257525084
2023-02-21T11:22:01.275Z,24.334448160535118
2023-02-21T11:28:26.693Z,25.220735785953178
2023-02-21T11:34:51.591Z,24.494983277591974
2023-02-21T11:41:23.575Z,24.953177257525084
2023-02-21T11:49:38.336Z,23.82274247491639
2023-02-21T11:56:02.652Z,22.551839464882942
2023-02-21T12:02:27.328Z,23.254180602006688
2023-02-21T12:08:52.325Z,22.60200668896321
2023-02-21T12:15:16.584Z,22.234113712374583
2023-02-21T12:22:34.232Z,22.411371237458194
2023-02-21T12:31:29.189Z,21.97993311036789
2023-02-21T12:38:43.361Z,21.77257525083612
2023-02-21T12:46:59.405Z,22.040133779264213
2023-02-21T12:57:23.468Z,20.839464882943144
2023-02-21T13:04:09.205Z,22.137123745819398
2023-02-21T13:11:08.643Z,22.989966555183948
2023-02-21T13:18:54.486Z,20.735785953177256
2023-02-21T13:25:36.245Z,21.812709030100333
2023-02-21T13:38:00.180Z,22.327759197324415
2023-02-21T13:51:05.492Z,21.274247491638796
2023-02-21T14:03:49.920Z,22.13377926421405
2023-02-21T14:16:24.743Z,25.755852842809364
2023-02-21T14:23:01.985Z,24.789297658862875
2023-02-21T14:29:38.993Z,25.83277591973244
2023-02-21T14:36:30.189Z,25.959866220735787
2023-02-21T14:43:20.313Z,26.438127090301002
2023-02-21T14:50:05.317Z,26.046822742474916
2023-02-21T14:56:51.558Z,26.785953177257525
2023-02-21T15:03:55.954Z,26.775919732441473
2023-02-21T15:10:54.629Z,26.224080267558527
2023-02-21T15:19:15.660Z,27.645484949832777
2023-02-21T15:25:55.427Z,27.872909698996654
2023-02-21T15:33:57.111Z,26.51505016722408
2023-02-21T15:41:10.785Z,25.94983277591973
2023-02-21T15:55:46.249Z,30.377926421404684
2023-02-21T16:02:28.933Z,30.474916387959865
2023-02-21T16:11:36.226Z,32.67224080267559
2023-02-21T16:23:24.141Z,31.25752508361204
2023-02-21T16:30:24.853Z,31.217391304347824
2023-02-21T16:38:48.712Z,33.719063545150505
2023-02-21T16:45:52.812Z,33.020066889632105
2023-02-21T16:53:01.382Z,34.74916387959866
2023-02-21T17:00:25.226Z,34.46488294314381
2023-02-21T17:08:03.612Z,48.76254180602007
2023-02-21T17:15:00.766Z,46.19397993311037
2023-02-21T17:21:46.748Z,54.1438127090301
2023-02-21T17:39:07.229Z,39.62207357859532
2023-02-21T17:47:00.089Z,40.709030100334445
2023-02-21T17:54:02.775Z,41.474916387959865
2023-02-21T18:04:15.763Z,41.49832775919732
2023-02-21T18:11:47.766Z,44.89297658862876
2023-02-21T18:27:50.050Z,45.391304347826086
2023-02-21T18:40:00.904Z,43.836120401337794
2023-02-21T18:47:06.676Z,45.09364548494983
2023-02-21T18:58:49.879Z,44.903010033444815
2023-02-21T19:05:26.074Z,44.67892976588629
2023-02-21T19:16:40.027Z,46.36120401337793
2023-02-21T19:23:12.718Z,47.274247491638796
2023-02-21T19:29:58.469Z,48.702341137123746
2023-02-21T19:36:29.648Z,49.020066889632105
2023-02-21T20:07:52.961Z,49.05351170568562
2023-02-21T20:18:18.408Z,51.20066889632107
2023-02-21T20:31:18.950Z,48.72909698996656
2023-02-21T20:43:15.948Z,49.903010033444815
2023-02-21T20:49:56.306Z,50.79933110367893
2023-02-21T20:56:33.917Z,50.88294314381271
2023-02-21T21:03:13.121Z,49.80936454849498
2023-02-21T21:09:59.724Z,49.66555183946488
2023-02-21T21:23:52.817Z,49.130434782608695
2023-02-21T21:30:42.893Z,49.675585284280935
2023-02-21T21:40:01.260Z,48.759197324414714
2023-02-21T21:53:32.193Z,47.77591973244147
2023-02-21T22:03:02.253Z,48.13377926421405
2023-02-21T22:15:09.044Z,45.36120401337793
2023-02-21T22:28:22.539Z,41.575250836120404
2023-02-21T22:35:28.893Z,41.61538461538461
2023-02-21T23:00:38.017Z,40.95986622073578
2023-02-21T23:07:41.218Z,41.23076923076923
2023-02-21T23:14:52.217Z,41.187290969899664
2023-02-21T23:25:35.233Z,42.18394648829432
2023-02-21T23:33:12.877Z,43.35117056856188
2023-02-21T23:46:57.950Z,41.103678929765884
2023-02-21T23:58:20.687Z,41.585284280936456
